createdAt,value
2018-06-29T00:00:58.906Z,68.73
2018-06-29T00:01:58.888Z,67.86
2018-06-29T00:02:58.873Z,67.86
2018-06-29T00:03:58.862Z,68.06
2018-06-29T00:04:58.847Z,67.68
2018-06-29T00:05:58.832Z,68.25
2018-06-29T00:06:58.828Z,68.70
2018-06-29T00:07:58.811Z,68.35
2018-06-29T00:08:58.792Z,68.89
2018-06-29T00:09:58.779Z,68.41
2018-06-29T00:10:58.767Z,68.60
2018-06-29T00:11:58.755Z,68.41
2018-06-29T00:12:58.739Z,68.70
2018-06-29T00:13:58.727Z,68.41
2018-06-29T00:14:58.714Z,68.54
2018-06-29T00:15:58.700Z,69.18
2018-06-29T00:16:58.689Z,68.51
2018-06-29T00:17:58.675Z,68.41
2018-06-29T00:18:58.660Z,68.51
2018-06-29T00:19:58.649Z,68.79
2018-06-29T00:20:58.634Z,69.18
2018-06-29T00:21:58.624Z,68.51
2018-06-29T00:22:58.615Z,68.79
2018-06-29T00:23:58.602Z,68.89
2018-06-29T00:24:58.580Z,68.89
2018-06-29T00:25:58.574Z,68.70
2018-06-29T00:26:58.554Z,68.79
2018-06-29T00:27:58.539Z,68.89
2018-06-29T00:28:58.525Z,69.08
2018-06-29T00:29:58.512Z,69.56
2018-06-29T00:30:58.500Z,69.18
2018-06-29T00:31:58.488Z,69.37
2018-06-29T00:32:58.470Z,69.46
2018-06-29T00:33:58.459Z,69.46
2018-06-29T00:34:58.444Z,69.08
2018-06-29T00:35:58.431Z,69.27
2018-06-29T00:36:58.417Z,69.46
2018-06-29T00:37:58.404Z,69.56
2018-06-29T00:38:58.392Z,69.37
2018-06-29T00:39:58.380Z,69.27
2018-06-29T00:40:58.362Z,69.46
2018-06-29T00:41:58.348Z,69.18
2018-06-29T00:42:58.335Z,68.79
2018-06-29T00:43:58.322Z,69.08
2018-06-29T00:44:58.308Z,69.46
2018-06-29T00:45:58.346Z,69.66
2018-06-29T00:46:58.288Z,69.27
2018-06-29T00:47:58.266Z,69.18
2018-06-29T00:48:58.259Z,69.46
2018-06-29T00:49:58.240Z,68.98
2018-06-29T00:50:58.226Z,69.56
2018-06-29T00:51:58.215Z,69.56
2018-06-29T00:52:58.200Z,69.08
2018-06-29T00:53:58.185Z,69.08
2018-06-29T00:54:58.171Z,69.66
2018-06-29T00:55:58.165Z,69.37
2018-06-29T00:56:58.143Z,69.56
2018-06-29T00:57:58.130Z,69.24
2018-06-29T00:58:58.117Z,69.66
2018-06-29T00:59:58.107Z,69.53
2018-06-29T01:00:58.089Z,69.53
2018-06-29T01:01:58.076Z,69.91
2018-06-29T01:02:58.066Z,70.01
2018-06-29T01:03:58.050Z,69.91
2018-06-29T01:04:58.033Z,70.20
2018-06-29T01:05:58.019Z,70.87
2018-06-29T01:06:58.006Z,70.29
2018-06-29T01:07:57.994Z,70.68
2018-06-29T01:08:57.978Z,70.78
2018-06-29T01:09:57.963Z,70.97
2018-06-29T01:10:57.951Z,71.06
2018-06-29T01:11:57.936Z,71.16
2018-06-29T01:12:57.922Z,70.87
2018-06-29T01:13:57.910Z,71.16
2018-06-29T01:14:57.894Z,70.78
2018-06-29T01:15:57.882Z,69.72
2018-06-29T01:16:57.868Z,70.78
2018-06-29T01:17:57.855Z,70.68
2018-06-29T01:18:57.839Z,70.78
2018-06-29T01:19:57.826Z,70.20
2018-06-29T01:20:57.811Z,69.81
2018-06-29T01:21:57.797Z,70.68
2018-06-29T01:22:57.784Z,69.81
2018-06-29T01:23:57.770Z,70.78
2018-06-29T01:24:57.757Z,71.16
2018-06-29T01:25:57.745Z,71.03
2018-06-29T01:26:57.729Z,70.10
2018-06-29T01:27:57.716Z,70.49
2018-06-29T01:28:57.699Z,70.55
2018-06-29T01:29:57.685Z,70.64
2018-06-29T01:30:57.671Z,70.68
2018-06-29T01:31:57.659Z,69.81
2018-06-29T01:32:58.250Z,70.49
2018-06-29T01:33:57.638Z,70.55
2018-06-29T01:34:57.620Z,70.45
2018-06-29T01:35:57.605Z,70.68
2018-06-29T01:36:57.587Z,69.91
2018-06-29T01:37:57.572Z,69.97
2018-06-29T01:38:57.559Z,70.07
2018-06-29T01:39:57.546Z,69.91
2018-06-29T01:40:57.537Z,69.43
2018-06-29T01:41:57.520Z,70.01
2018-06-29T01:42:57.505Z,70.10
2018-06-29T01:43:57.488Z,70.01
2018-06-29T01:44:57.475Z,70.68
2018-06-29T01:45:57.462Z,69.91
2018-06-29T01:46:57.446Z,69.34
2018-06-29T01:47:57.433Z,70.10
2018-06-29T01:48:57.417Z,70.29
2018-06-29T01:49:57.404Z,69.72
2018-06-29T01:50:57.391Z,70.10
2018-06-29T01:51:57.377Z,69.81
2018-06-29T01:52:57.360Z,70.78
2018-06-29T01:53:57.372Z,70.20
2018-06-29T01:54:57.334Z,70.17
2018-06-29T01:55:57.318Z,71.03
2018-06-29T01:56:57.306Z,70.55
2018-06-29T01:57:57.291Z,70.55
2018-06-29T01:58:57.281Z,70.64
2018-06-29T01:59:57.262Z,71.22
2018-06-29T02:00:57.248Z,70.93
2018-06-29T02:01:57.234Z,71.12
2018-06-29T02:02:57.220Z,71.03
2018-06-29T02:03:57.207Z,71.22
2018-06-29T02:04:57.190Z,71.89
2018-06-29T02:05:57.176Z,72.56
2018-06-29T02:06:57.162Z,72.18
2018-06-29T02:07:57.182Z,72.08
2018-06-29T02:08:57.133Z,72.66
2018-06-29T02:09:57.122Z,72.08
2018-06-29T02:10:57.105Z,72.08
2018-06-29T02:11:57.093Z,71.51
2018-06-29T02:12:57.076Z,72.56
2018-06-29T02:13:57.063Z,71.51
2018-06-29T02:14:57.046Z,71.98
2018-06-29T02:15:57.034Z,72.56
2018-06-29T02:16:57.023Z,71.98
2018-06-29T02:17:57.006Z,71.89
2018-06-29T02:18:56.989Z,72.08
2018-06-29T02:19:56.976Z,71.89
2018-06-29T02:20:56.960Z,72.95
2018-06-29T02:21:56.951Z,72.28
2018-06-29T02:22:56.933Z,72.66
2018-06-29T02:23:56.918Z,72.66
2018-06-29T02:24:56.910Z,72.85
2018-06-29T02:25:56.889Z,72.56
2018-06-29T02:26:56.876Z,73.04
2018-06-29T02:27:56.861Z,73.39
2018-06-29T02:28:56.848Z,72.81
2018-06-29T02:29:56.832Z,72.81
2018-06-29T02:30:56.818Z,74.06
2018-06-29T02:31:56.804Z,73.77
2018-06-29T02:32:56.791Z,73.58
2018-06-29T02:33:56.778Z,73.49
2018-06-29T02:34:56.760Z,73.39
2018-06-29T02:35:56.745Z,73.20
2018-06-29T02:36:56.734Z,73.49
2018-06-29T02:37:56.717Z,73.30
2018-06-29T02:38:56.702Z,73.30
2018-06-29T02:39:56.689Z,73.68
2018-06-29T02:40:56.673Z,74.35
2018-06-29T02:41:56.660Z,73.30
2018-06-29T02:42:56.644Z,73.00
2018-06-29T02:43:56.629Z,73.20
2018-06-29T02:44:56.615Z,73.20
2018-06-29T02:45:56.600Z,73.10
2018-06-29T02:46:56.989Z,72.28
2018-06-29T02:47:56.978Z,72.72
2018-06-29T02:48:56.560Z,73.00
2018-06-29T02:49:56.541Z,72.91
2018-06-29T02:50:56.528Z,73.97
2018-06-29T02:51:56.520Z,73.20
2018-06-29T02:52:56.496Z,72.81
2018-06-29T02:53:56.486Z,73.24
2018-06-29T02:54:56.471Z,72.91
2018-06-29T02:55:56.455Z,72.56
2018-06-29T02:56:56.441Z,72.24
2018-06-29T02:57:56.423Z,72.53
2018-06-29T02:58:56.409Z,72.53
2018-06-29T02:59:56.397Z,72.63
2018-06-29T03:00:56.380Z,73.30
2018-06-29T03:01:56.368Z,73.00
2018-06-29T03:02:56.353Z,72.63
2018-06-29T03:03:56.335Z,72.33
2018-06-29T03:04:56.329Z,72.63
2018-06-29T03:05:56.309Z,72.33
2018-06-29T03:06:56.295Z,73.00
2018-06-29T03:07:56.278Z,73.10
2018-06-29T03:08:56.264Z,72.81
2018-06-29T03:09:56.249Z,72.63
2018-06-29T03:10:56.235Z,73.00
2018-06-29T03:11:56.220Z,73.39
2018-06-29T03:12:56.212Z,72.72
2018-06-29T03:13:56.189Z,72.33
2018-06-29T03:14:56.175Z,72.81
2018-06-29T03:15:56.166Z,73.30
2018-06-29T03:16:56.149Z,73.39
2018-06-29T03:17:56.130Z,73.30
2018-06-29T03:18:56.116Z,73.10
2018-06-29T03:19:56.102Z,73.97
2018-06-29T03:20:56.086Z,73.39
2018-06-29T03:21:56.073Z,72.91
2018-06-29T03:22:56.058Z,72.24
2018-06-29T03:23:56.046Z,72.72
2018-06-29T03:24:56.030Z,72.81
2018-06-29T03:25:56.015Z,72.63
2018-06-29T03:26:55.999Z,72.28
2018-06-29T03:27:55.983Z,72.91
2018-06-29T03:28:55.970Z,73.10
2018-06-29T03:29:55.954Z,72.53
2018-06-29T03:30:55.942Z,73.30
2018-06-29T03:31:55.927Z,72.72
2018-06-29T03:32:55.939Z,73.10
2018-06-29T03:33:55.897Z,73.30
2018-06-29T03:34:55.882Z,73.00
2018-06-29T03:35:55.867Z,73.39
2018-06-29T03:36:55.852Z,73.20
2018-06-29T03:37:55.838Z,73.00
2018-06-29T03:38:55.823Z,73.87
2018-06-29T03:39:55.808Z,73.30
2018-06-29T03:40:55.792Z,73.20
2018-06-29T03:41:55.779Z,73.20
2018-06-29T03:42:55.764Z,73.30
2018-06-29T03:43:55.749Z,73.39
2018-06-29T03:44:55.732Z,72.91
2018-06-29T03:45:55.722Z,72.24
2018-06-29T03:46:55.705Z,72.72
2018-06-29T03:47:55.689Z,72.24
2018-06-29T03:48:55.679Z,72.53
2018-06-29T03:49:55.660Z,72.14
2018-06-29T03:50:55.646Z,71.66
2018-06-29T03:51:55.635Z,72.24
2018-06-29T03:52:55.617Z,72.33
2018-06-29T03:53:55.601Z,71.66
2018-06-29T03:54:55.588Z,71.09
2018-06-29T03:55:55.574Z,71.37
2018-06-29T03:56:55.557Z,71.09
2018-06-29T03:57:55.544Z,70.99
2018-06-29T03:58:55.531Z,70.70
2018-06-29T03:59:55.513Z,71.37
2018-06-29T04:00:55.499Z,71.70
2018-06-29T04:01:55.495Z,72.05
2018-06-29T04:02:55.470Z,71.57
2018-06-29T04:03:55.455Z,72.05
2018-06-29T04:04:55.441Z,71.86
2018-06-29T04:05:55.424Z,71.37
2018-06-29T04:06:55.411Z,70.99
2018-06-29T04:07:55.398Z,70.80
2018-06-29T04:08:55.380Z,70.90
2018-06-29T04:09:55.366Z,70.90
2018-06-29T04:10:55.352Z,70.99
2018-06-29T04:11:55.350Z,70.42
2018-06-29T04:12:55.386Z,70.61
2018-06-29T04:13:55.309Z,70.13
2018-06-29T04:14:55.293Z,70.42
2018-06-29T04:15:55.282Z,70.45
2018-06-29T04:16:55.264Z,71.09
2018-06-29T04:17:55.249Z,70.80
2018-06-29T04:18:55.238Z,70.42
2018-06-29T04:19:55.221Z,70.80
2018-06-29T04:20:55.205Z,70.74
2018-06-29T04:21:55.191Z,70.45
2018-06-29T04:22:55.181Z,70.36
2018-06-29T04:23:55.162Z,70.64
2018-06-29T04:24:55.149Z,70.64
2018-06-29T04:25:55.131Z,71.12
2018-06-29T04:26:55.118Z,70.84
2018-06-29T04:27:55.102Z,70.74
2018-06-29T04:28:55.098Z,70.74
2018-06-29T04:29:55.074Z,71.22
2018-06-29T04:30:55.059Z,70.84
2018-06-29T04:31:55.045Z,71.03
2018-06-29T04:32:55.029Z,71.12
2018-06-29T04:33:55.019Z,71.22
2018-06-29T04:34:55.000Z,72.37
2018-06-29T04:35:54.985Z,71.80
2018-06-29T04:36:54.972Z,71.51
2018-06-29T04:37:54.959Z,71.51
2018-06-29T04:38:54.943Z,71.98
2018-06-29T04:39:54.934Z,71.89
2018-06-29T04:40:54.913Z,72.28
2018-06-29T04:41:54.899Z,72.28
2018-06-29T04:42:54.933Z,72.22
2018-06-29T04:43:54.870Z,72.08
2018-06-29T04:44:54.856Z,72.18
2018-06-29T04:45:54.840Z,71.51
2018-06-29T04:46:54.830Z,72.47
2018-06-29T04:47:54.812Z,72.28
2018-06-29T04:48:54.796Z,72.47
2018-06-29T04:49:54.781Z,71.70
2018-06-29T04:50:54.775Z,71.45
2018-06-29T04:51:54.753Z,71.55
2018-06-29T04:52:54.741Z,71.55
2018-06-29T04:53:54.724Z,71.55
2018-06-29T04:54:54.710Z,71.55
2018-06-29T04:55:54.696Z,71.83
2018-06-29T04:56:54.680Z,71.73
2018-06-29T04:57:54.667Z,71.93
2018-06-29T04:58:54.651Z,71.73
2018-06-29T04:59:54.637Z,72.31
2018-06-29T05:00:54.626Z,72.22
2018-06-29T05:01:54.607Z,71.93
2018-06-29T05:02:54.597Z,72.02
2018-06-29T05:03:54.585Z,71.35
2018-06-29T05:04:54.564Z,71.19
2018-06-29T05:05:54.551Z,71.00
2018-06-29T05:06:54.535Z,71.67
2018-06-29T05:07:54.530Z,71.10
2018-06-29T05:08:54.506Z,71.00
2018-06-29T05:09:54.493Z,71.87
2018-06-29T05:10:54.495Z,72.06
2018-06-29T05:11:54.464Z,71.35
2018-06-29T05:12:54.452Z,71.67
2018-06-29T05:13:54.435Z,72.06
2018-06-29T05:14:54.426Z,71.77
2018-06-29T05:15:54.413Z,71.87
2018-06-29T05:16:54.394Z,71.96
2018-06-29T05:17:54.380Z,71.39
2018-06-29T05:18:54.368Z,71.19
2018-06-29T05:19:54.349Z,71.10
2018-06-29T05:20:54.336Z,71.19
2018-06-29T05:21:54.321Z,71.39
2018-06-29T05:22:54.316Z,71.67
2018-06-29T05:23:54.295Z,72.16
2018-06-29T05:24:54.279Z,72.16
2018-06-29T05:25:54.263Z,71.48
2018-06-29T05:26:54.250Z,71.52
2018-06-29T05:27:54.237Z,71.42
2018-06-29T05:28:54.222Z,71.61
2018-06-29T05:29:54.209Z,72.00
2018-06-29T05:30:54.194Z,71.81
2018-06-29T05:31:54.181Z,71.33
2018-06-29T05:32:54.164Z,70.94
2018-06-29T05:33:54.155Z,71.14
2018-06-29T05:34:54.140Z,71.33
2018-06-29T05:35:54.190Z,71.91
2018-06-29T05:36:54.113Z,71.14
2018-06-29T05:37:54.095Z,71.42
2018-06-29T05:38:54.081Z,70.94
2018-06-29T05:39:54.069Z,70.56
2018-06-29T05:40:54.051Z,71.08
2018-06-29T05:41:54.037Z,70.98
2018-06-29T05:42:54.024Z,70.78
2018-06-29T05:43:54.011Z,70.88
2018-06-29T05:44:53.994Z,70.30
2018-06-29T05:45:53.985Z,70.21
2018-06-29T05:46:54.038Z,70.21
2018-06-29T05:47:53.956Z,70.01
2018-06-29T05:48:53.938Z,69.53
2018-06-29T05:49:53.927Z,70.01
2018-06-29T05:50:53.912Z,70.40
2018-06-29T05:51:53.899Z,70.30
2018-06-29T05:52:53.888Z,69.76
2018-06-29T05:53:53.871Z,69.67
2018-06-29T05:54:53.858Z,70.24
2018-06-29T05:55:53.843Z,70.15
2018-06-29T05:56:53.829Z,69.67
2018-06-29T05:57:53.815Z,69.67
2018-06-29T05:58:53.803Z,69.09
2018-06-29T05:59:53.788Z,69.09
2018-06-29T06:00:53.773Z,69.09
2018-06-29T06:01:53.822Z,69.57
2018-06-29T06:02:53.747Z,68.99
2018-06-29T06:03:53.733Z,69.09
2018-06-29T06:04:53.719Z,69.09
2018-06-29T06:05:53.709Z,69.22
2018-06-29T06:06:53.691Z,68.64
2018-06-29T06:07:53.681Z,68.35
2018-06-29T06:08:53.661Z,67.77
2018-06-29T06:09:53.649Z,67.87
2018-06-29T06:10:53.635Z,68.35
2018-06-29T06:11:53.623Z,67.68
2018-06-29T06:12:53.645Z,67.33
2018-06-29T06:13:53.597Z,68.00
2018-06-29T06:14:53.584Z,67.81
2018-06-29T06:15:53.569Z,67.71
2018-06-29T06:16:53.556Z,66.94
2018-06-29T06:17:53.542Z,66.46
2018-06-29T06:18:53.528Z,66.94
2018-06-29T06:19:53.517Z,66.94
2018-06-29T06:20:53.501Z,66.97
2018-06-29T06:21:53.539Z,66.69
2018-06-29T06:22:53.476Z,67.16
2018-06-29T06:23:53.460Z,66.97
2018-06-29T06:24:53.449Z,66.49
2018-06-29T06:25:53.436Z,65.63
2018-06-29T06:26:53.423Z,66.11
2018-06-29T06:27:53.409Z,65.56
2018-06-29T06:28:53.396Z,65.27
2018-06-29T06:29:53.382Z,64.79
2018-06-29T06:30:53.370Z,64.69
2018-06-29T06:31:53.358Z,64.89
2018-06-29T06:32:53.342Z,64.89
2018-06-29T06:33:53.331Z,64.50
2018-06-29T06:34:53.318Z,64.31
2018-06-29T06:35:53.304Z,63.95
2018-06-29T06:36:53.291Z,64.43
2018-06-29T06:37:53.279Z,63.67
2018-06-29T06:38:53.265Z,63.85
2018-06-29T06:39:53.252Z,63.76
2018-06-29T06:40:53.243Z,63.09
2018-06-29T06:41:53.229Z,63.76
2018-06-29T06:42:53.213Z,63.95
2018-06-29T06:43:53.199Z,63.21
2018-06-29T06:44:53.188Z,63.60
2018-06-29T06:45:53.176Z,64.08
2018-06-29T06:46:53.167Z,63.21
2018-06-29T06:47:53.149Z,62.25
2018-06-29T06:48:53.136Z,61.89
2018-06-29T06:49:53.123Z,61.22
2018-06-29T06:50:53.111Z,62.18
2018-06-29T06:51:53.099Z,61.31
2018-06-29T06:52:53.085Z,61.12
2018-06-29T06:53:53.076Z,60.09
2018-06-29T06:54:53.061Z,59.70
2018-06-29T06:55:53.056Z,60.18
2018-06-29T06:56:53.038Z,61.25
2018-06-29T06:57:53.023Z,59.89
2018-06-29T06:58:53.012Z,59.22
2018-06-29T06:59:52.999Z,59.22
2018-06-29T07:00:52.986Z,60.38
2018-06-29T07:01:52.976Z,59.53
2018-06-29T07:02:52.972Z,58.76
2018-06-29T07:03:52.951Z,58.76
2018-06-29T07:04:52.940Z,59.15
2018-06-29T07:05:52.951Z,58.86
2018-06-29T07:06:52.913Z,58.67
2018-06-29T07:07:52.919Z,58.21
2018-06-29T07:08:52.890Z,58.12
2018-06-29T07:09:52.877Z,59.08
2018-06-29T07:10:52.866Z,58.40
2018-06-29T07:11:52.884Z,57.63
2018-06-29T07:12:52.842Z,56.37
2018-06-29T07:13:52.832Z,56.70
2018-06-29T07:14:52.819Z,57.28
2018-06-29T07:15:52.814Z,57.46
2018-06-29T07:16:52.798Z,57.66
2018-06-29T07:17:52.783Z,56.79
2018-06-29T07:18:52.771Z,57.69
2018-06-29T07:19:52.761Z,58.27
2018-06-29T07:20:52.747Z,56.34
2018-06-29T07:21:52.739Z,56.72
2018-06-29T07:22:52.726Z,56.04
2018-06-29T07:23:52.714Z,56.07
2018-06-29T07:24:52.705Z,55.20
2018-06-29T07:25:52.695Z,54.23
2018-06-29T07:26:52.676Z,55.00
2018-06-29T07:27:52.669Z,54.52
2018-06-29T07:28:52.657Z,55.22
2018-06-29T07:29:52.646Z,53.97
2018-06-29T07:30:52.636Z,53.00
2018-06-29T07:31:52.623Z,53.00
2018-06-29T07:32:52.611Z,53.67
2018-06-29T07:33:52.602Z,52.90
2018-06-29T07:34:52.589Z,53.97
2018-06-29T07:35:52.580Z,54.09
2018-06-29T07:36:52.573Z,53.31
2018-06-29T07:37:52.614Z,53.51
2018-06-29T07:38:52.548Z,53.22
2018-06-29T07:39:52.541Z,53.22
2018-06-29T07:40:52.532Z,52.93
2018-06-29T07:41:52.519Z,51.67
2018-06-29T07:42:52.507Z,52.06
2018-06-29T07:43:52.494Z,51.98
2018-06-29T07:44:52.486Z,51.69
2018-06-29T07:45:52.476Z,51.98
2018-06-29T07:46:52.470Z,52.20
2018-06-29T07:47:52.462Z,52.20
2018-06-29T07:48:52.452Z,52.20
2018-06-29T07:49:52.433Z,51.04
2018-06-29T07:50:52.423Z,51.33
2018-06-29T07:51:52.415Z,50.48
2018-06-29T07:52:52.443Z,51.84
2018-06-29T07:53:52.393Z,50.29
2018-06-29T07:54:52.383Z,50.31
2018-06-29T07:55:52.373Z,50.31
2018-06-29T07:56:52.364Z,49.92
2018-06-29T07:57:52.369Z,48.00
2018-06-29T07:58:52.425Z,46.94
2018-06-29T07:59:52.335Z,48.13
2018-06-29T08:00:52.344Z,48.41
2018-06-29T08:01:52.314Z,44.94
2018-06-29T08:02:52.306Z,46.51
2018-06-29T08:03:52.342Z,43.52
2018-06-29T08:04:52.287Z,43.84
2018-06-29T08:05:52.276Z,42.32
2018-06-29T08:06:52.268Z,40.88
2018-06-29T08:07:52.258Z,40.04
2018-06-29T08:08:52.247Z,40.08
2018-06-29T08:09:52.238Z,38.34
2018-06-29T08:10:52.231Z,36.00
2018-06-29T08:11:52.223Z,37.10
2018-06-29T08:12:52.212Z,35.65
2018-06-29T08:13:52.203Z,35.66
2018-06-29T08:14:52.193Z,36.35
2018-06-29T08:15:52.185Z,35.75
2018-06-29T08:16:52.243Z,35.16
2018-06-29T08:17:52.168Z,34.67
2018-06-29T08:18:52.162Z,35.53
2018-06-29T08:19:52.154Z,36.12
2018-06-29T08:20:52.144Z,36.02
2018-06-29T08:21:52.137Z,37.47
2018-06-29T08:22:52.132Z,36.32
2018-06-29T08:23:52.123Z,36.71
2018-06-29T08:24:52.117Z,34.74
2018-06-29T08:25:52.111Z,35.81
2018-06-29T08:26:52.105Z,34.54
2018-06-29T08:27:52.099Z,35.22
2018-06-29T08:28:52.092Z,35.13
2018-06-29T08:29:52.087Z,36.49
2018-06-29T08:30:52.082Z,35.93
2018-06-29T08:31:52.075Z,34.75
2018-06-29T08:32:52.071Z,35.85
2018-06-29T08:33:52.068Z,36.53
2018-06-29T08:34:52.063Z,35.35
2018-06-29T08:35:52.057Z,34.28
2018-06-29T08:36:52.051Z,34.57
2018-06-29T08:37:52.048Z,35.37
2018-06-29T08:38:52.042Z,33.70
2018-06-29T08:39:52.040Z,33.80
2018-06-29T08:40:52.035Z,32.71
2018-06-29T08:41:52.029Z,34.78
2018-06-29T08:42:52.026Z,35.47
2018-06-29T08:43:52.022Z,35.37
2018-06-29T08:44:52.016Z,34.31
2018-06-29T08:45:52.013Z,35.10
2018-06-29T08:46:52.072Z,33.74
2018-06-29T08:47:52.004Z,34.72
2018-06-29T08:48:52.000Z,33.36
2018-06-29T08:49:51.994Z,32.20
2018-06-29T08:50:51.990Z,32.31
2018-06-29T08:51:51.987Z,32.12
2018-06-29T08:52:51.981Z,31.94
2018-06-29T08:53:51.976Z,31.95
2018-06-29T08:54:51.973Z,31.09
2018-06-29T08:55:51.971Z,29.80
2018-06-29T08:56:51.965Z,30.79
2018-06-29T08:57:51.959Z,29.33
2018-06-29T08:58:51.970Z,30.82
2018-06-29T08:59:51.955Z,29.63
2018-06-29T09:00:51.949Z,31.51
2018-06-29T09:01:51.946Z,28.16
2018-06-29T09:02:51.943Z,29.53
2018-06-29T09:03:51.940Z,27.86
2018-06-29T09:04:51.973Z,26.79
2018-06-29T09:05:51.931Z,28.17
2018-06-29T09:06:51.927Z,26.88
2018-06-29T09:07:51.927Z,28.85
2018-06-29T09:08:51.920Z,27.56
2018-06-29T09:09:51.917Z,28.34
2018-06-29T09:10:51.934Z,28.44
2018-06-29T09:11:51.909Z,29.44
2018-06-29T09:12:51.908Z,26.97
2018-06-29T09:13:51.905Z,28.44
2018-06-29T09:14:51.901Z,28.06
2018-06-29T09:15:51.898Z,27.47
2018-06-29T09:16:51.899Z,25.89
2018-06-29T09:17:51.893Z,28.26
2018-06-29T09:18:51.898Z,29.05
2018-06-29T09:19:51.886Z,29.35
2018-06-29T09:20:51.883Z,28.58
2018-06-29T09:21:51.879Z,27.40
2018-06-29T09:22:51.876Z,25.83
2018-06-29T09:23:51.873Z,26.03
2018-06-29T09:24:51.870Z,24.65
2018-06-29T09:25:51.868Z,27.11
2018-06-29T09:26:51.876Z,26.03
2018-06-29T09:27:51.860Z,25.63
2018-06-29T09:28:51.861Z,25.93
2018-06-29T09:29:51.913Z,26.32
2018-06-29T09:30:51.854Z,25.72
2018-06-29T09:31:51.851Z,25.92
2018-06-29T09:32:51.844Z,27.01
2018-06-29T09:33:51.845Z,25.44
2018-06-29T09:34:51.852Z,26.14
2018-06-29T09:35:51.844Z,25.16
2018-06-29T09:36:51.837Z,25.56
2018-06-29T09:37:51.835Z,24.09
2018-06-29T09:38:51.837Z,24.49
2018-06-29T09:39:51.828Z,24.10
2018-06-29T09:40:51.825Z,23.72
2018-06-29T09:41:51.824Z,22.94
2018-06-29T09:42:51.831Z,23.15
2018-06-29T09:43:51.821Z,23.66
2018-06-29T09:44:51.820Z,22.48
2018-06-29T09:45:51.819Z,21.49
2018-06-29T09:46:51.817Z,21.98
2018-06-29T09:47:51.878Z,23.18
2018-06-29T09:48:51.811Z,21.58
2018-06-29T09:49:51.810Z,22.95
2018-06-29T09:50:51.811Z,21.67
2018-06-29T09:51:51.807Z,22.48
2018-06-29T09:52:51.807Z,20.89
2018-06-29T09:53:51.812Z,20.89
2018-06-29T09:54:51.805Z,20.00
2018-06-29T09:55:51.807Z,20.67
2018-06-29T09:56:51.813Z,22.25
2018-06-29T09:57:51.799Z,23.33
2018-06-29T09:58:51.801Z,22.24
2018-06-29T09:59:51.798Z,21.42
2018-06-29T10:00:55.413Z,22.88
2018-06-29T10:01:51.797Z,24.26
2018-06-29T10:02:51.797Z,22.96
2018-06-29T10:03:51.797Z,24.63
2018-06-29T10:04:51.791Z,24.13
2018-06-29T10:05:51.786Z,23.96
2018-06-29T10:06:51.791Z,23.59
2018-06-29T10:07:51.783Z,21.53
2018-06-29T10:08:51.788Z,22.63
2018-06-29T10:09:51.783Z,20.98
2018-06-29T10:10:51.795Z,20.70
2018-06-29T10:11:51.782Z,19.84
2018-06-29T10:12:51.779Z,17.97
2018-06-29T10:13:51.779Z,17.58
2018-06-29T10:14:51.781Z,18.68
2018-06-29T10:15:51.779Z,17.11
2018-06-29T10:16:51.779Z,18.80
2018-06-29T10:17:51.776Z,18.01
2018-06-29T10:18:51.776Z,18.23
2018-06-29T10:19:51.803Z,16.75
2018-06-29T10:20:51.777Z,17.76
2018-06-29T10:21:51.776Z,15.66
2018-06-29T10:22:51.786Z,17.55
2018-06-29T10:23:51.779Z,15.56
2018-06-29T10:24:51.774Z,15.25
2018-06-29T10:25:51.776Z,15.64
2018-06-29T10:26:51.774Z,16.04
2018-06-29T10:27:51.775Z,14.83
2018-06-29T10:28:51.779Z,16.01
2018-06-29T10:29:51.779Z,16.68
2018-06-29T10:30:51.808Z,16.88
2018-06-29T10:31:51.780Z,16.97
2018-06-29T10:32:51.779Z,17.37
2018-06-29T10:33:51.779Z,17.16
2018-06-29T10:34:51.781Z,16.56
2018-06-29T10:35:51.787Z,16.95
2018-06-29T10:36:51.801Z,17.43
2018-06-29T10:37:51.786Z,18.51
2018-06-29T10:38:51.791Z,17.80
2018-06-29T10:39:51.782Z,18.49
2018-06-29T10:40:51.783Z,19.98
2018-06-29T10:41:51.799Z,19.29
2018-06-29T10:42:51.792Z,19.48
2018-06-29T10:43:51.786Z,19.78
2018-06-29T10:44:51.841Z,19.57
2018-06-29T10:45:51.784Z,21.64
2018-06-29T10:46:51.786Z,21.93
2018-06-29T10:47:51.788Z,21.83
2018-06-29T10:48:51.784Z,22.22
2018-06-29T10:49:51.785Z,22.20
2018-06-29T10:50:51.784Z,21.60
2018-06-29T10:51:51.786Z,22.59
2018-06-29T10:52:51.799Z,23.47
2018-06-29T10:53:51.782Z,24.15
2018-06-29T10:54:51.781Z,25.03
2018-06-29T10:55:51.790Z,25.82
2018-06-29T10:56:51.790Z,25.33
2018-06-29T10:57:51.808Z,24.44
2018-06-29T10:58:51.777Z,25.52
2018-06-29T10:59:51.777Z,27.10
2018-06-29T11:00:51.777Z,26.71
2018-06-29T11:01:51.773Z,25.52
2018-06-29T11:02:51.777Z,24.43
2018-06-29T11:03:51.780Z,26.01
2018-06-29T11:04:51.771Z,24.15
2018-06-29T11:05:51.768Z,24.82
2018-06-29T11:06:51.768Z,25.42
2018-06-29T11:07:51.764Z,24.71
2018-06-29T11:08:51.763Z,25.99
2018-06-29T11:09:51.769Z,25.70
2018-06-29T11:10:51.801Z,24.51
2018-06-29T11:11:51.761Z,25.88
2018-06-29T11:12:51.763Z,24.41
2018-06-29T11:13:51.753Z,25.89
2018-06-29T11:14:51.752Z,24.02
2018-06-29T11:15:51.749Z,23.82
2018-06-29T11:16:51.749Z,23.42
2018-06-29T11:17:51.744Z,24.69
2018-06-29T11:18:51.743Z,24.40
2018-06-29T11:19:51.739Z,24.29
2018-06-29T11:20:51.741Z,25.66
2018-06-29T11:21:51.736Z,26.54
2018-06-29T11:22:51.735Z,24.57
2018-06-29T11:23:51.732Z,24.46
2018-06-29T11:24:51.726Z,24.65
2018-06-29T11:25:51.726Z,25.34
2018-06-29T11:26:51.724Z,23.38
2018-06-29T11:27:51.723Z,24.36
2018-06-29T11:28:51.720Z,26.01
2018-06-29T11:29:51.714Z,26.90
2018-06-29T11:30:51.714Z,27.09
2018-06-29T11:31:51.711Z,26.81
2018-06-29T11:32:51.708Z,25.73
2018-06-29T11:33:51.707Z,25.93
2018-06-29T11:34:51.700Z,25.82
2018-06-29T11:35:51.701Z,26.03
2018-06-29T11:36:51.773Z,26.11
2018-06-29T11:37:51.695Z,25.43
2018-06-29T11:38:51.686Z,24.53
2018-06-29T11:39:51.685Z,26.00
2018-06-29T11:40:51.682Z,25.70
2018-06-29T11:41:51.679Z,26.68
2018-06-29T11:42:51.681Z,28.05
2018-06-29T11:43:51.673Z,29.14
2018-06-29T11:44:51.669Z,26.98
2018-06-29T11:45:51.672Z,26.68
2018-06-29T11:46:51.663Z,27.85
2018-06-29T11:47:51.661Z,27.95
2018-06-29T11:48:51.657Z,28.64
2018-06-29T11:49:51.658Z,28.54
2018-06-29T11:50:51.655Z,28.34
2018-06-29T11:51:51.648Z,29.22
2018-06-29T11:52:51.643Z,29.60
2018-06-29T11:53:51.646Z,27.55
2018-06-29T11:54:51.638Z,27.55
2018-06-29T11:55:51.636Z,27.34
2018-06-29T11:56:51.631Z,28.03
2018-06-29T11:57:51.627Z,28.02
2018-06-29T11:58:51.623Z,28.33
2018-06-29T11:59:51.622Z,29.90
2018-06-29T12:00:51.622Z,31.57
2018-06-29T12:01:51.614Z,29.70
2018-06-29T12:02:51.611Z,28.13
2018-06-29T12:03:51.612Z,27.06
2018-06-29T12:04:51.604Z,26.96
2018-06-29T12:05:51.602Z,27.94
2018-06-29T12:06:51.602Z,29.11
2018-06-29T12:07:51.594Z,28.82
2018-06-29T12:08:51.594Z,29.52
2018-06-29T12:09:51.587Z,28.93
2018-06-29T12:10:51.584Z,27.97
2018-06-29T12:11:51.580Z,27.98
2018-06-29T12:12:51.575Z,27.89
2018-06-29T12:13:51.572Z,27.89
2018-06-29T12:14:51.618Z,25.65
2018-06-29T12:15:51.568Z,24.08
2018-06-29T12:16:51.563Z,23.50
2018-06-29T12:17:51.561Z,25.57
2018-06-29T12:18:51.558Z,25.09
2018-06-29T12:19:51.555Z,21.26
2018-06-29T12:20:51.726Z,23.13
2018-06-29T12:21:51.552Z,21.15
2018-06-29T12:22:51.546Z,21.55
2018-06-29T12:23:51.544Z,21.66
2018-06-29T12:24:51.538Z,21.66
2018-06-29T12:25:51.537Z,21.26
2018-06-29T12:26:51.536Z,22.15
2018-06-29T12:27:51.550Z,23.42
2018-06-29T12:28:51.529Z,22.84
2018-06-29T12:29:51.525Z,22.35
2018-06-29T12:30:51.530Z,23.33
2018-06-29T12:31:51.528Z,23.46
2018-06-29T12:32:51.517Z,23.46
2018-06-29T12:33:51.524Z,22.67
2018-06-29T12:34:51.513Z,22.59
2018-06-29T12:35:51.515Z,23.58
2018-06-29T12:36:51.507Z,21.70
2018-06-29T12:37:51.556Z,21.61
2018-06-29T12:38:51.509Z,22.41
2018-06-29T12:39:51.509Z,22.50
2018-06-29T12:40:51.499Z,21.81
2018-06-29T12:41:51.499Z,21.80
2018-06-29T12:42:51.494Z,21.60
2018-06-29T12:43:51.490Z,23.87
2018-06-29T12:44:51.489Z,22.00
2018-06-29T12:45:51.493Z,21.80
2018-06-29T12:46:51.482Z,22.89
2018-06-29T12:47:51.487Z,23.97
2018-06-29T12:48:51.479Z,22.89
2018-06-29T12:49:51.482Z,21.90
2018-06-29T12:50:51.476Z,23.29
2018-06-29T12:51:51.473Z,21.51
2018-06-29T12:52:51.476Z,22.30